Time;durP1;ratioP1;P1;durP2;ratioP2;P2;SDS_P1;SDS_P2;PMS_P1;PMS_P2;Temp;Humidity;BMP_temperature;BMP_pressure;BME280_temperature;BME280_humidity;BME280_pressure;Samples;Min_cycle;Max_cycle;Signal;HPM_P1;HPM_P2
2021/05/10 00:01:12;;;;;;;6.88;1.45;;;20.60;99.90;;;;;;5089013;28;20028;-55
2021/05/10 00:03:38;;;;;;;3.97;1.20;;;20.60;99.90;;;;;;5085891;28;20047;-52
2021/05/10 00:06:04;;;;;;;4.28;1.40;;;20.60;99.90;;;;;;5088411;28;20028;-52
2021/05/10 00:08:29;;;;;;;3.53;1.40;;;20.50;99.90;;;;;;5085373;28;20028;-55
2021/05/10 00:10:55;;;;;;;4.88;1.60;;;20.50;99.90;;;;;;5085112;28;20039;-52
2021/05/10 00:13:26;;;;;;;6.80;1.75;;;20.50;99.90;;;;;;5084369;28;20059;-54
2021/05/10 00:15:51;;;;;;;4.18;1.48;;;20.40;99.90;;;;;;5084431;28;20036;-53
2021/05/10 00:18:18;;;;;;;6.88;1.10;;;20.40;99.90;;;;;;5088072;28;20461;-59
2021/05/10 00:20:45;;;;;;;8.85;2.15;;;20.40;99.90;;;;;;5088678;28;20465;-52
2021/05/10 00:23:12;;;;;;;6.30;1.25;;;20.30;99.90;;;;;;5087576;28;20043;-53
2021/05/10 00:25:38;;;;;;;3.85;1.38;;;20.40;99.90;;;;;;5078723;28;20033;-53
2021/05/10 00:28:04;;;;;;;2.30;1.45;;;20.50;99.90;;;;;;5084341;28;20054;-54
2021/05/10 00:30:31;;;;;;;7.40;1.90;;;20.60;99.90;;;;;;5087437;28;20028;-55
2021/05/10 00:32:56;;;;;;;4.95;1.38;;;20.70;99.90;;;;;;5087973;28;20032;-52
2021/05/10 00:35:23;;;;;;;6.55;1.40;;;20.70;99.90;;;;;;5083743;28;20086;-57
2021/05/10 00:37:49;;;;;;;3.55;1.20;;;20.80;99.90;;;;;;5084358;28;20031;-52
2021/05/10 00:40:20;;;;;;;3.20;1.48;;;20.80;99.90;;;;;;5084451;28;20031;-52
2021/05/10 00:42:46;;;;;;;3.05;1.42;;;20.70;99.90;;;;;;5090150;28;20035;-56
2021/05/10 00:45:12;;;;;;;4.93;1.40;;;20.80;99.90;;;;;;5088396;28;20069;-52
2021/05/10 00:47:38;;;;;;;4.35;1.58;;;20.80;99.90;;;;;;5085680;28;20032;-52
2021/05/10 00:50:05;;;;;;;3.88;1.33;;;20.80;99.90;;;;;;5085355;28;20035;-54
2021/05/10 00:52:31;;;;;;;3.95;1.20;;;20.70;99.90;;;;;;5089454;28;20275;-54
2021/05/10 00:54:57;;;;;;;6.32;1.38;;;20.70;99.90;;;;;;5087787;28;20397;-52
2021/05/10 00:57:23;;;;;;;5.70;1.30;;;20.70;99.90;;;;;;5087564;28;20437;-53
2021/05/10 00:59:52;;;;;;;3.33;1.10;;;20.60;99.90;;;;;;5088066;28;20028;-53
2021/05/10 01:02:18;;;;;;;3.78;1.20;;;20.60;99.90;;;;;;5087322;28;20055;-52
2021/05/10 01:04:44;;;;;;;4.30;1.30;;;20.50;99.90;;;;;;5084932;28;20153;-53
2021/05/10 01:07:11;;;;;;;2.30;1.20;;;20.50;99.90;;;;;;5085781;28;20478;-52
2021/05/10 01:09:37;;;;;;;2.42;1.25;;;20.40;99.90;;;;;;5080188;28;20039;-53
2021/05/10 01:12:03;;;;;;;3.22;1.35;;;20.30;99.90;;;;;;5092987;28;20028;-53
2021/05/10 01:14:29;;;;;;;5.93;1.20;;;20.20;99.90;;;;;;5083221;28;20025;-53
2021/05/10 01:16:55;;;;;;;6.28;1.40;;;20.10;99.90;;;;;;5082352;28;20583;-53
2021/05/10 01:19:22;;;;;;;3.92;1.60;;;20.00;99.90;;;;;;5077018;28;20028;-54
2021/05/10 01:21:49;;;;;;;5.25;1.10;;;19.90;99.90;;;;;;5089790;28;20027;-53
2021/05/10 01:24:15;;;;;;;3.70;1.00;;;19.90;99.90;;;;;;5088133;28;20099;-53
2021/05/10 01:26:41;;;;;;;5.00;2.03;;;19.70;99.90;;;;;;5082180;28;20095;-52
2021/05/10 01:29:07;;;;;;;4.68;1.60;;;19.70;99.90;;;;;;5081197;28;20108;-54
2021/05/10 01:31:33;;;;;;;5.30;1.08;;;19.60;99.90;;;;;;5090549;28;20069;-53
2021/05/10 01:33:58;;;;;;;4.20;1.77;;;19.60;99.90;;;;;;5088927;28;20036;-55
2021/05/10 01:36:24;;;;;;;6.53;1.38;;;19.60;99.90;;;;;;5085713;28;20024;-55
2021/05/10 01:38:49;;;;;;;5.57;1.42;;;19.60;99.90;;;;;;5083091;28;20101;-52
2021/05/10 01:41:15;;;;;;;6.10;1.30;;;19.90;99.90;;;;;;5090724;28;20490;-56
2021/05/10 01:43:40;;;;;;;17.23;1.65;;;20.60;99.90;;;;;;5084783;28;20035;-55
2021/05/10 01:46:06;;;;;;;4.78;1.52;;;21.00;99.90;;;;;;5085772;28;20035;-53
2021/05/10 01:48:32;;;;;;;2.42;1.10;;;21.20;99.20;;;;;;5083815;28;20032;-53
2021/05/10 01:50:57;;;;;;;1.98;1.25;;;21.20;99.80;;;;;;5092389;28;20067;-54
2021/05/10 01:53:23;;;;;;;2.25;0.98;;;21.20;99.90;;;;;;5086435;28;20025;-52
2021/05/10 01:55:48;;;;;;;3.63;0.90;;;21.10;99.70;;;;;;5089969;28;20043;-55
2021/05/10 01:58:14;;;;;;;3.03;1.35;;;21.00;99.90;;;;;;5084211;28;20024;-54
2021/05/10 02:00:45;;;;;;;4.18;1.60;;;21.00;99.70;;;;;;5091562;28;20042;-54
2021/05/10 02:03:14;;;;;;;3.92;1.15;;;21.20;99.20;;;;;;5090366;28;20386;-53
2021/05/10 02:05:40;;;;;;;6.50;1.40;;;21.00;99.90;;;;;;5090829;28;20533;-56
2021/05/10 02:08:07;;;;;;;4.25;1.40;;;21.00;99.90;;;;;;5090440;28;20032;-52
2021/05/10 02:10:44;;;;;;;2.42;1.20;;;20.90;99.90;;;;;;5083318;28;20028;-56
2021/05/10 02:13:12;;;;;;;3.78;1.20;;;20.90;99.90;;;;;;5093347;28;20028;-54
2021/05/10 02:15:47;;;;;;;2.97;1.27;;;20.90;99.90;;;;;;5088143;28;20108;-53
2021/05/10 02:18:15;;;;;;;3.13;1.08;;;20.80;99.90;;;;;;5091897;28;20358;-56
2021/05/10 02:20:41;;;;;;;7.30;1.52;;;20.80;99.90;;;;;;5088527;28;20028;-53
2021/05/10 02:23:13;;;;;;;3.08;1.00;;;20.70;99.90;;;;;;5093232;28;20024;-52
2021/05/10 02:25:44;;;;;;;3.90;1.30;;;20.60;99.90;;;;;;5090595;28;20099;-56
2021/05/10 02:28:11;;;;;;;1.75;1.23;;;20.50;99.90;;;;;;5091221;28;20028;-55
2021/05/10 02:30:39;;;;;;;7.65;1.48;;;20.40;99.90;;;;;;5090555;28;20982;-57
2021/05/10 02:33:07;;;;;;;2.35;1.38;;;20.20;99.90;;;;;;5083856;28;20151;-56
2021/05/10 02:35:33;;;;;;;4.68;1.35;;;20.20;99.90;;;;;;5076174;28;20168;-53
2021/05/10 02:37:59;;;;;;;3.55;1.23;;;20.10;99.90;;;;;;5076013;28;20108;-56
2021/05/10 02:40:25;;;;;;;4.70;1.33;;;20.00;99.90;;;;;;5086793;28;20436;-55
2021/05/10 02:42:51;;;;;;;6.15;1.35;;;19.90;99.90;;;;;;5075165;28;20025;-55
2021/05/10 02:45:18;;;;;;;7.22;1.30;;;19.70;99.90;;;;;;5081041;28;20099;-53
2021/05/10 02:47:44;;;;;;;1.67;1.30;;;19.70;99.90;;;;;;5073128;28;20020;-53
2021/05/10 02:50:17;;;;;;;7.20;1.45;;;19.60;99.90;;;;;;5082239;28;20016;-54
2021/05/10 02:52:43;;;;;;;2.50;1.27;;;19.40;99.90;;;;;;5081649;28;20029;-53
2021/05/10 02:55:09;;;;;;;4.90;1.42;;;19.40;99.90;;;;;;5084185;28;20519;-52
2021/05/10 02:57:37;;;;;;;3.92;1.60;;;19.30;99.90;;;;;;5083102;28;20070;-55
2021/05/10 03:00:07;;;;;;;4.57;1.40;;;19.20;99.90;;;;;;5081367;28;20035;-53
2021/05/10 03:02:33;;;;;;;6.85;1.83;;;19.10;99.90;;;;;;5077989;28;20028;-53
2021/05/10 03:04:58;;;;;;;4.07;1.38;;;19.00;99.90;;;;;;5079624;28;20046;-56
2021/05/10 03:07:24;;;;;;;5.38;1.75;;;18.90;99.90;;;;;;5077729;28;20080;-53
2021/05/10 03:09:50;;;;;;;6.95;1.77;;;18.70;99.90;;;;;;5079621;28;20028;-53
2021/05/10 03:12:15;;;;;;;3.05;1.60;;;18.70;99.90;;;;;;5084101;28;20028;-52
2021/05/10 03:14:41;;;;;;;3.63;1.95;;;18.60;99.90;;;;;;5079183;28;20538;-56
2021/05/10 03:17:06;;;;;;;11.18;1.65;;;18.60;99.90;;;;;;5083432;28;20033;-54
2021/05/10 03:19:32;;;;;;;4.57;1.92;;;18.50;99.90;;;;;;5080801;28;20032;-54
2021/05/10 03:21:58;;;;;;;6.05;2.10;;;18.40;99.90;;;;;;5080274;28;20103;-55
2021/05/10 03:24:24;;;;;;;3.85;2.25;;;18.30;99.90;;;;;;5077900;28;20016;-56
2021/05/10 03:26:50;;;;;;;7.35;1.63;;;18.30;99.90;;;;;;5080393;28;20035;-53
2021/05/10 03:29:16;;;;;;;2.67;1.65;;;18.30;99.90;;;;;;5074271;28;20024;-55
2021/05/10 03:31:41;;;;;;;3.35;1.60;;;18.30;99.90;;;;;;5079762;28;20036;-56
2021/05/10 03:34:07;;;;;;;4.22;1.95;;;18.40;99.90;;;;;;5077381;28;20039;-56
2021/05/10 03:36:32;;;;;;;4.15;1.40;;;18.50;99.90;;;;;;5080977;28;20036;-56
2021/05/10 03:39:00;;;;;;;8.93;1.70;;;18.50;99.90;;;;;;5075627;28;20235;-55
2021/05/10 03:41:26;;;;;;;4.78;1.55;;;18.50;99.90;;;;;;5083672;28;20496;-54
2021/05/10 03:43:51;;;;;;;3.08;2.05;;;18.50;99.90;;;;;;5078515;28;20181;-56
2021/05/10 03:46:17;;;;;;;4.72;1.50;;;18.60;99.90;;;;;;5077421;28;20024;-53
2021/05/10 03:48:44;;;;;;;4.32;1.08;;;18.70;99.90;;;;;;5072780;28;20351;-56
2021/05/10 03:51:09;;;;;;;3.10;1.30;;;18.80;99.90;;;;;;5083140;28;20063;-53
2021/05/10 03:53:35;;;;;;;5.50;1.52;;;19.00;99.90;;;;;;5079968;28;20024;-53
2021/05/10 03:56:01;;;;;;;8.77;1.40;;;19.20;99.90;;;;;;5082019;28;20024;-55
2021/05/10 03:58:26;;;;;;;7.13;1.75;;;19.50;99.90;;;;;;5075718;28;20379;-54
2021/05/10 04:00:52;;;;;;;4.00;1.40;;;19.90;99.90;;;;;;5082296;28;20028;-55
2021/05/10 04:03:19;;;;;;;4.82;1.33;;;20.20;99.90;;;;;;5074065;28;20028;-53
2021/05/10 04:15:52;;;;;;;3.90;1.27;;;20.40;99.90;;;;;;5080976;28;20046;-55
2021/05/10 04:18:18;;;;;;;3.85;1.40;;;20.30;99.90;;;;;;5082960;28;20028;-54
2021/05/10 04:20:44;;;;;;;3.95;2.33;;;20.10;99.90;;;;;;5080768;28;20033;-52
2021/05/10 04:23:10;;;;;;;8.63;1.70;;;19.90;99.90;;;;;;5073549;28;20030;-55
2021/05/10 04:25:36;;;;;;;9.48;1.55;;;19.80;99.90;;;;;;5082273;28;20028;-55
2021/05/10 04:28:02;;;;;;;9.65;1.92;;;19.70;99.90;;;;;;5074444;28;20035;-54
2021/05/10 04:30:29;;;;;;;7.50;1.70;;;19.60;99.90;;;;;;5078516;28;20062;-53
2021/05/10 04:33:01;;;;;;;2.78;1.63;;;19.60;99.90;;;;;;5078242;28;20543;-56
2021/05/10 04:35:26;;;;;;;2.67;1.30;;;19.40;99.90;;;;;;5077100;28;20445;-53
2021/05/10 04:37:52;;;;;;;5.88;1.52;;;19.60;99.90;;;;;;5078329;28;20025;-55
2021/05/10 04:40:18;;;;;;;5.13;1.30;;;19.80;99.90;;;;;;5076106;28;20028;-53
2021/05/10 04:42:45;;;;;;;4.88;1.85;;;19.80;99.90;;;;;;5080534;28;20596;-54
2021/05/10 04:45:11;;;;;;;5.38;1.80;;;19.90;99.90;;;;;;5079607;28;20107;-53
2021/05/10 04:47:36;;;;;;;3.63;1.38;;;19.90;99.90;;;;;;5078831;28;20040;-54
2021/05/10 04:50:12;;;;;;;6.93;1.67;;;19.90;99.90;;;;;;5074202;28;20039;-52
2021/05/10 04:52:38;;;;;;;3.85;1.60;;;19.80;99.90;;;;;;5085537;28;20387;-51
2021/05/10 04:55:09;;;;;;;4.32;1.35;;;20.00;99.90;;;;;;5074101;28;20025;-52
2021/05/10 04:57:34;;;;;;;1.23;1.02;;;20.00;99.90;;;;;;5067002;28;20035;-52
2021/05/10 05:00:00;;;;;;;4.43;1.25;;;20.00;99.90;;;;;;5080977;28;20032;-55
2021/05/10 05:02:26;;;;;;;4.32;1.40;;;20.10;99.90;;;;;;5082085;28;20020;-55
2021/05/10 05:04:52;;;;;;;3.55;1.40;;;20.00;99.90;;;;;;5077615;28;20024;-55
2021/05/10 05:07:18;;;;;;;5.22;1.42;;;20.00;99.90;;;;;;5082656;28;20023;-53
2021/05/10 05:09:43;;;;;;;5.80;1.67;;;20.00;99.90;;;;;;5073572;28;20112;-52
2021/05/10 05:12:09;;;;;;;5.57;1.20;;;20.00;99.90;;;;;;5080941;28;20020;-56
2021/05/10 05:14:35;;;;;;;5.15;1.30;;;20.00;99.90;;;;;;5077064;28;20052;-55
2021/05/10 05:17:01;;;;;;;7.07;1.40;;;19.90;99.90;;;;;;5079019;28;20110;-55
2021/05/10 05:19:26;;;;;;;7.93;1.55;;;20.10;99.90;;;;;;5080186;28;20158;-55
2021/05/10 05:21:52;;;;;;;6.35;1.50;;;20.10;99.90;;;;;;5080101;28;20039;-51
2021/05/10 05:24:18;;;;;;;2.38;1.30;;;20.00;99.90;;;;;;5076932;28;20017;-52
2021/05/10 05:26:43;;;;;;;5.43;1.50;;;20.00;99.90;;;;;;5081446;28;20478;-53
2021/05/10 05:29:09;;;;;;;7.72;1.40;;;20.00;99.90;;;;;;5081199;28;20020;-54
2021/05/10 05:31:35;;;;;;;5.80;1.30;;;19.90;99.90;;;;;;5084625;28;20034;-53
2021/05/10 05:34:00;;;;;;;6.25;2.88;;;19.90;99.90;;;;;;5081021;28;20039;-51
2021/05/10 05:36:26;;;;;;;7.07;1.65;;;20.00;99.90;;;;;;5079781;28;20030;-56
2021/05/10 05:38:51;;;;;;;9.88;1.70;;;20.10;99.90;;;;;;5077197;28;20437;-55
2021/05/10 05:41:17;;;;;;;4.28;1.40;;;20.00;99.90;;;;;;5085223;28;20102;-56
2021/05/10 05:43:43;;;;;;;7.70;1.63;;;20.00;99.90;;;;;;5079131;28;20020;-57
2021/05/10 05:46:19;;;;;;;5.53;1.80;;;20.00;99.90;;;;;;5082073;28;20037;-57
2021/05/10 05:48:45;;;;;;;6.53;1.20;;;20.00;99.90;;;;;;5079662;28;20029;-58
2021/05/10 05:51:11;;;;;;;8.60;1.35;;;20.00;99.90;;;;;;5080923;28;20055;-58
2021/05/10 05:53:37;;;;;;;6.70;1.50;;;20.00;99.90;;;;;;5082958;28;20047;-59
2021/05/10 05:56:03;;;;;;;10.60;2.15;;;19.90;99.90;;;;;;5078566;28;20067;-58
2021/05/10 05:58:29;;;;;;;7.13;1.33;;;19.90;99.90;;;;;;5059954;28;20049;-56
2021/05/10 06:00:54;;;;;;;10.13;2.30;;;19.90;99.90;;;;;;5077944;28;20117;-59
2021/05/10 06:03:20;;;;;;;7.38;1.63;;;19.90;99.90;;;;;;5078825;28;20020;-57
2021/05/10 06:05:46;;;;;;;3.92;1.52;;;19.90;99.90;;;;;;5079989;28;20036;-57
2021/05/10 06:08:14;;;;;;;7.63;2.05;;;19.90;99.90;;;;;;5070793;28;20040;-57
2021/05/10 06:10:40;;;;;;;5.40;1.80;;;19.90;99.90;;;;;;5082543;28;20032;-54
2021/05/10 06:13:07;;;;;;;6.57;1.60;;;19.90;99.90;;;;;;5079355;28;20040;-57
2021/05/10 06:15:33;;;;;;;3.85;1.95;;;20.00;99.90;;;;;;5078965;28;20036;-57
2021/05/10 06:17:59;;;;;;;4.93;1.25;;;19.90;99.90;;;;;;5076954;28;20474;-56
2021/05/10 06:20:26;;;;;;;3.53;1.40;;;19.90;99.90;;;;;;5077140;28;20070;-57
2021/05/10 06:22:52;;;;;;;4.60;1.63;;;19.80;99.90;;;;;;5082449;28;20023;-56
2021/05/10 06:25:18;;;;;;;5.38;1.27;;;19.80;99.90;;;;;;5082975;28;20339;-59
2021/05/10 06:27:44;;;;;;;2.58;1.38;;;19.70;99.90;;;;;;5076556;28;20112;-56
2021/05/10 06:30:11;;;;;;;4.97;1.50;;;19.60;99.90;;;;;;5080717;28;20031;-57
2021/05/10 06:32:37;;;;;;;2.17;1.35;;;19.60;99.90;;;;;;5079051;28;20040;-57
2021/05/10 06:35:03;;;;;;;4.25;1.83;;;19.50;99.90;;;;;;5080078;28;20047;-54
2021/05/10 06:37:29;;;;;;;2.63;1.50;;;19.50;99.90;;;;;;5075747;28;20608;-56
2021/05/10 06:39:56;;;;;;;3.25;1.63;;;19.40;99.90;;;;;;5076141;28;20033;-56
2021/05/10 06:42:21;;;;;;;4.47;1.50;;;19.30;99.90;;;;;;5084707;28;20024;-59
2021/05/10 06:44:47;;;;;;;5.80;1.70;;;19.30;99.90;;;;;;5078254;28;20024;-58
2021/05/10 06:47:13;;;;;;;7.70;1.50;;;19.40;99.90;;;;;;5080054;28;20027;-56
2021/05/10 06:49:38;;;;;;;4.43;1.52;;;19.40;99.90;;;;;;5082906;28;20028;-57
2021/05/10 06:52:04;;;;;;;5.70;1.55;;;19.60;99.90;;;;;;5082264;28;20663;-56
2021/05/10 06:54:29;;;;;;;3.30;1.80;;;19.70;99.90;;;;;;5084684;28;20517;-57
2021/05/10 06:56:55;;;;;;;4.53;1.50;;;19.90;99.90;;;;;;5080021;28;20081;-56
2021/05/10 06:59:21;;;;;;;6.75;1.80;;;20.00;99.90;;;;;;5077835;28;20020;-53
2021/05/10 07:01:47;;;;;;;7.32;1.75;;;20.10;99.90;;;;;;5083630;28;20115;-56
2021/05/10 07:04:12;;;;;;;7.00;1.70;;;20.20;99.90;;;;;;5075533;28;20071;-58
2021/05/10 07:06:38;;;;;;;7.15;1.30;;;20.20;99.90;;;;;;5076796;28;20520;-53
2021/05/10 07:09:04;;;;;;;3.83;1.60;;;20.30;99.90;;;;;;5076360;28;20028;-59
2021/05/10 07:11:33;;;;;;;6.25;1.70;;;20.40;99.90;;;;;;5085324;28;20098;-57
2021/05/10 07:13:58;;;;;;;3.83;1.77;;;20.50;99.90;;;;;;5077143;28;20498;-58
2021/05/10 07:16:24;;;;;;;3.08;1.70;;;20.70;99.90;;;;;;5077208;28;20082;-57
2021/05/10 07:18:49;;;;;;;7.63;1.98;;;20.90;99.90;;;;;;5078879;28;20060;-55
2021/05/10 07:21:15;;;;;;;8.68;2.03;;;21.10;99.90;;;;;;5076707;28;20454;-59
2021/05/10 07:23:40;;;;;;;11.13;2.72;;;21.10;99.90;;;;;;5075507;28;20472;-58
2021/05/10 07:26:06;;;;;;;4.28;1.60;;;21.00;99.90;;;;;;5079983;28;20082;-58
2021/05/10 07:28:31;;;;;;;4.72;1.63;;;20.90;99.90;;;;;;5076649;28;20521;-58
2021/05/10 07:30:57;;;;;;;6.13;1.60;;;20.90;99.90;;;;;;5059201;28;20424;-57
2021/05/10 07:33:22;;;;;;;1.55;1.10;;;20.90;99.90;;;;;;5083128;28;20503;-58
2021/05/10 07:35:48;;;;;;;3.15;0.85;;;20.90;99.90;;;;;;5080043;28;20056;-57
2021/05/10 07:38:14;;;;;;;7.80;0.88;;;20.70;99.90;;;;;;5073607;28;20020;-57
2021/05/10 07:40:39;;;;;;;4.35;1.00;;;20.60;99.90;;;;;;5075061;28;20034;-57
2021/05/10 07:43:05;;;;;;;1.48;0.93;;;20.50;99.90;;;;;;5076356;28;20025;-57
2021/05/10 07:45:33;;;;;;;4.72;0.80;;;20.50;99.90;;;;;;5075911;28;20034;-55
2021/05/10 07:48:00;;;;;;;4.68;2.10;;;20.40;99.90;;;;;;5056759;28;20055;-58
2021/05/10 07:50:27;;;;;;;2.97;0.52;;;20.30;99.90;;;;;;5079133;28;20110;-56
2021/05/10 07:52:54;;;;;;;2.45;0.68;;;20.30;99.90;;;;;;5076784;28;20916;-55
2021/05/10 07:55:20;;;;;;;3.05;0.88;;;20.30;99.90;;;;;;5078732;28;20055;-56
2021/05/10 07:57:46;;;;;;;7.00;1.23;;;20.30;99.90;;;;;;5074502;28;20093;-58
2021/05/10 08:00:16;;;;;;;2.67;0.85;;;20.30;99.90;;;;;;5080953;28;20020;-57
2021/05/10 08:02:43;;;;;;;3.63;0.70;;;20.30;99.90;;;;;;5082981;28;20020;-59
2021/05/10 08:05:10;;;;;;;1.65;0.73;;;20.30;99.90;;;;;;5080642;28;20027;-57
2021/05/10 08:07:36;;;;;;;2.78;0.55;;;20.40;99.90;;;;;;5077560;28;20475;-58
2021/05/10 08:10:02;;;;;;;4.80;0.95;;;20.40;99.90;;;;;;5081848;28;20081;-58
2021/05/10 08:12:28;;;;;;;2.63;1.10;;;20.40;99.90;;;;;;5075092;28;20050;-59
2021/05/10 08:14:53;;;;;;;2.03;0.60;;;20.40;99.90;;;;;;5080137;28;20636;-59
2021/05/10 08:17:21;;;;;;;5.57;0.80;;;20.40;99.90;;;;;;5075113;28;20033;-56
2021/05/10 08:19:47;;;;;;;2.83;0.88;;;20.50;99.90;;;;;;5076479;28;20077;-57
2021/05/10 08:22:12;;;;;;;1.73;0.70;;;20.40;99.90;;;;;;5077652;28;20012;-56
2021/05/10 08:24:38;;;;;;;1.98;0.60;;;20.30;99.90;;;;;;5079871;28;20052;-57
2021/05/10 08:27:03;;;;;;;1.92;0.68;;;20.20;99.90;;;;;;5074363;28;20033;-56
2021/05/10 08:29:29;;;;;;;3.03;0.55;;;20.10;99.90;;;;;;5077050;28;20117;-57
2021/05/10 08:31:56;;;;;;;2.65;0.45;;;20.10;99.90;;;;;;5080654;28;20036;-57
2021/05/10 08:34:22;;;;;;;2.15;0.50;;;20.00;99.90;;;;;;5063905;28;20035;-56
2021/05/10 08:36:48;;;;;;;1.15;0.60;;;20.00;99.90;;;;;;5074622;28;20032;-56
2021/05/10 08:39:13;;;;;;;1.88;0.70;;;20.00;99.90;;;;;;5063765;28;21407;-56
2021/05/10 08:41:40;;;;;;;2.70;0.60;;;20.00;99.90;;;;;;5074111;28;20055;-59
2021/05/10 08:44:07;;;;;;;0.93;0.50;;;20.00;99.90;;;;;;5078529;28;20112;-59
2021/05/10 08:46:34;;;;;;;6.28;0.57;;;20.00;99.90;;;;;;5082435;28;20443;-57
2021/05/10 08:48:59;;;;;;;1.85;0.50;;;20.00;99.90;;;;;;5078735;28;20016;-56
2021/05/10 08:51:26;;;;;;;2.35;0.50;;;20.10;99.90;;;;;;5078987;28;20024;-54
2021/05/10 08:53:52;;;;;;;3.13;0.43;;;20.00;99.90;;;;;;5079347;28;20078;-59
2021/05/10 08:56:18;;;;;;;1.40;0.60;;;19.90;99.90;;;;;;5079647;28;20024;-56
2021/05/10 08:58:45;;;;;;;2.28;0.60;;;19.80;99.90;;;;;;5080201;28;20028;-55
2021/05/10 09:01:12;;;;;;;2.92;0.55;;;19.80;99.90;;;;;;5080660;28;20581;-55
2021/05/10 09:03:50;;;;;;;2.15;0.52;;;19.70;99.90;;;;;;5081713;28;20020;-57
2021/05/10 09:06:21;;;;;;;1.15;0.60;;;19.70;99.90;;;;;;5076552;28;20520;-58
2021/05/10 09:08:51;;;;;;;0.60;0.43;;;19.70;99.90;;;;;;5078755;28;20033;-59
2021/05/10 09:11:18;;;;;;;3.33;1.10;;;19.60;99.90;;;;;;5080695;28;20024;-58
2021/05/10 09:13:54;;;;;;;2.20;0.70;;;19.50;99.90;;;;;;5069027;28;20033;-56
2021/05/10 09:16:20;;;;;;;3.22;0.60;;;19.40;99.90;;;;;;5081563;28;20466;-54
2021/05/10 09:18:57;;;;;;;3.33;0.50;;;19.30;99.90;;;;;;5078370;28;20143;-59
2021/05/10 09:21:27;;;;;;;1.55;0.40;;;19.40;99.90;;;;;;5078747;28;20107;-56
2021/05/10 09:23:54;;;;;;;1.90;0.63;;;19.30;99.90;;;;;;5079845;28;20020;-58
2021/05/10 09:26:34;;;;;;;2.42;0.50;;;19.30;99.90;;;;;;5077311;28;20029;-58
2021/05/10 09:29:01;;;;;;;5.15;0.50;;;19.30;99.90;;;;;;5077013;28;20036;-57
2021/05/10 09:31:27;;;;;;;0.52;0.45;;;19.40;99.90;;;;;;5078618;28;20032;-55
2021/05/10 09:33:54;;;;;;;0.90;0.50;;;19.40;99.90;;;;;;5074917;28;20040;-60
2021/05/10 09:36:37;;;;;;;2.58;0.60;;;19.40;99.90;;;;;;5078875;28;20032;-57
2021/05/10 09:39:24;;;;;;;1.20;0.50;;;19.50;99.90;;;;;;5075575;28;20119;-58
2021/05/10 09:42:02;;;;;;;1.10;0.60;;;19.60;99.90;;;;;;5080574;28;20494;-55
2021/05/10 09:44:48;;;;;;;1.42;0.80;;;19.80;99.90;;;;;;5080955;28;20035;-57
2021/05/10 09:47:21;;;;;;;1.63;0.50;;;19.80;99.90;;;;;;5072070;28;20433;-58
2021/05/10 09:49:50;;;;;;;1.97;0.40;;;19.80;99.90;;;;;;5077407;28;20045;-53
2021/05/10 09:52:22;;;;;;;1.95;0.50;;;19.70;99.90;;;;;;5072938;28;20353;-54
2021/05/10 09:55:01;;;;;;;1.63;0.70;;;19.80;99.90;;;;;;5081725;28;20579;-55
2021/05/10 09:57:27;;;;;;;0.50;0.35;;;19.80;99.90;;;;;;5073458;28;20393;-53
2021/05/10 10:00:17;;;;;;;7.20;0.70;;;19.70;99.90;;;;;;5076218;28;20020;-56
2021/05/10 10:02:42;;;;;;;1.23;0.80;;;19.50;99.90;;;;;;5079968;28;20024;-55
2021/05/10 10:05:09;;;;;;;4.05;0.70;;;19.40;99.90;;;;;;5072713;28;20287;-55
2021/05/10 10:07:38;;;;;;;1.50;0.50;;;19.50;99.90;;;;;;5076250;28;20526;-56
2021/05/10 10:10:04;;;;;;;2.38;0.60;;;19.50;99.90;;;;;;5054675;28;20021;-53
2021/05/10 10:12:31;;;;;;;3.15;0.70;;;19.70;99.90;;;;;;5077320;28;20087;-55
2021/05/10 10:14:56;;;;;;;1.27;0.40;;;19.80;99.90;;;;;;5076992;28;20393;-57
2021/05/10 10:17:22;;;;;;;2.72;0.60;;;19.90;99.90;;;;;;5075603;28;20078;-54
2021/05/10 10:19:49;;;;;;;1.75;0.82;;;19.80;99.90;;;;;;5079993;28;20052;-54
2021/05/10 10:22:16;;;;;;;4.97;0.70;;;19.90;99.90;;;;;;5086522;28;20020;-53
2021/05/10 10:24:44;;;;;;;0.45;0.45;;;20.00;99.90;;;;;;5080874;28;20031;-56
2021/05/10 10:27:11;;;;;;;1.60;0.63;;;20.10;99.90;;;;;;5083125;28;20063;-54
2021/05/10 10:29:38;;;;;;;1.08;0.50;;;20.10;99.90;;;;;;5081145;28;20032;-56
2021/05/10 10:32:05;;;;;;;0.63;0.60;;;20.10;99.90;;;;;;5078302;28;20529;-57
2021/05/10 10:34:35;;;;;;;1.10;0.47;;;20.10;99.90;;;;;;5076072;28;20036;-57
2021/05/10 10:37:03;;;;;;;1.65;0.60;;;20.20;99.90;;;;;;5086203;28;20110;-56
2021/05/10 10:39:32;;;;;;;1.25;0.50;;;20.00;99.90;;;;;;5078371;28;20029;-56
2021/05/10 10:42:02;;;;;;;1.00;0.50;;;20.00;99.90;;;;;;5079434;28;20032;-57
2021/05/10 10:44:34;;;;;;;1.48;0.43;;;19.90;99.90;;;;;;5076978;28;20037;-56
2021/05/10 10:47:01;;;;;;;1.02;0.57;;;20.00;99.90;;;;;;5077269;28;20043;-59
2021/05/10 10:49:31;;;;;;;4.00;0.88;;;20.00;99.90;;;;;;5078697;28;20020;-57
2021/05/10 10:51:58;;;;;;;1.55;0.68;;;20.10;99.90;;;;;;5083175;28;20077;-59
2021/05/10 10:54:28;;;;;;;3.72;0.85;;;20.10;99.90;;;;;;5076214;28;20082;-58
2021/05/10 10:57:00;;;;;;;0.80;0.70;;;20.10;99.90;;;;;;5065453;28;20123;-57
2021/05/10 10:59:35;;;;;;;5.07;0.70;;;20.10;99.90;;;;;;5077928;28;20024;-59
2021/05/10 11:02:18;;;;;;;1.45;0.95;;;20.00;99.90;;;;;;5083600;28;20107;-57
2021/05/10 11:04:46;;;;;;;2.30;0.70;;;19.90;99.90;;;;;;5078136;28;20020;-57
2021/05/10 11:07:12;;;;;;;2.47;0.77;;;19.90;99.90;;;;;;5080396;28;20025;-58
2021/05/10 11:09:52;;;;;;;2.25;0.90;;;19.90;99.90;;;;;;5074925;28;20029;-58
2021/05/10 11:12:45;;;;;;;2.03;1.13;;;20.00;99.90;;;;;;5076345;28;20062;-58
2021/05/10 11:15:12;;;;;;;3.15;0.98;;;20.00;99.90;;;;;;5081198;28;20024;-58
2021/05/10 11:17:52;;;;;;;1.05;0.68;;;20.10;99.90;;;;;;5082466;28;20402;-58
2021/05/10 11:20:18;;;;;;;3.67;1.27;;;20.30;99.90;;;;;;5082998;28;20024;-57
2021/05/10 11:22:47;;;;;;;2.83;1.05;;;20.50;99.90;;;;;;5083905;28;20154;-59
2021/05/10 11:25:39;;;;;;;2.03;1.15;;;20.50;99.90;;;;;;5074018;28;20576;-61
2021/05/10 11:28:29;;;;;;;3.67;1.10;;;20.70;99.90;;;;;;5077252;28;20028;-59
2021/05/10 11:30:59;;;;;;;1.80;0.88;;;20.80;99.90;;;;;;5076796;28;20779;-59
2021/05/10 11:33:53;;;;;;;1.73;0.98;;;21.10;99.90;;;;;;5077366;28;20250;-59
2021/05/10 11:36:32;;;;;;;3.97;1.60;;;21.30;99.90;;;;;;5083367;28;20030;-59
2021/05/10 11:38:59;;;;;;;1.08;0.60;;;21.40;99.90;;;;;;5078669;28;20027;-59
2021/05/10 11:41:42;;;;;;;3.05;1.05;;;21.50;99.90;;;;;;5079534;28;20020;-56
2021/05/10 11:44:23;;;;;;;2.20;1.00;;;21.20;99.90;;;;;;5077663;28;20020;-60
2021/05/10 11:46:50;;;;;;;1.40;0.80;;;20.90;99.90;;;;;;5079482;28;20355;-60
2021/05/10 11:49:36;;;;;;;1.60;0.70;;;20.60;99.90;;;;;;5077145;28;20025;-60
2021/05/10 11:52:10;;;;;;;3.03;0.93;;;20.70;99.90;;;;;;5078959;28;20045;-60
2021/05/10 11:54:38;;;;;;;1.88;0.70;;;20.60;99.90;;;;;;5076920;28;20047;-58
2021/05/10 11:57:05;;;;;;;2.30;0.80;;;20.60;99.90;;;;;;5076396;28;20028;-57
2021/05/10 12:01:59;;;;;;;4.25;1.05;;;20.40;99.90;;;;;;5075004;28;20041;-60
2021/05/10 12:04:28;;;;;;;1.73;0.95;;;20.30;99.90;;;;;;5079440;28;20046;-59
2021/05/10 12:06:55;;;;;;;4.97;0.90;;;20.40;99.90;;;;;;5079204;28;20108;-57
2021/05/10 12:09:37;;;;;;;2.85;0.95;;;20.20;99.90;;;;;;5081706;28;20024;-55
2021/05/10 12:12:24;;;;;;;2.20;0.85;;;20.20;99.90;;;;;;5079432;28;20342;-58
2021/05/10 12:14:54;;;;;;;1.13;0.80;;;20.20;99.90;;;;;;5071877;28;20037;-56
2021/05/10 12:17:26;;;;;;;2.10;0.90;;;20.10;99.90;;;;;;5074818;28;20482;-58
2021/05/10 12:20:11;;;;;;;0.73;0.70;;;20.10;99.90;;;;;;5075712;28;20033;-56
2021/05/10 12:22:45;;;;;;;2.45;1.25;;;20.10;99.90;;;;;;5080780;28;20393;-58
2021/05/10 12:25:24;;;;;;;2.35;0.75;;;20.30;99.90;;;;;;5077046;28;20396;-59
2021/05/10 12:28:09;;;;;;;1.50;0.70;;;20.30;99.90;;;;;;5075518;28;20081;-58
2021/05/10 12:30:44;;;;;;;5.68;1.10;;;20.40;99.90;;;;;;5080368;28;20139;-57
2021/05/10 12:33:19;;;;;;;2.60;0.90;;;20.60;99.90;;;;;;5082088;28;20040;-57
2021/05/10 12:35:53;;;;;;;2.65;1.15;;;20.80;99.90;;;;;;5077866;28;20116;-60
2021/05/10 12:38:26;;;;;;;;;;;20.80;99.90;;;;;;5078404;28;20016;-58
2021/05/10 12:40:52;;;;;;;0.82;0.70;;;20.70;99.90;;;;;;5080241;28;19912;-58
2021/05/10 12:43:22;;;;;;;0.65;0.65;;;20.60;99.90;;;;;;5075524;28;20016;-57
2021/05/10 12:45:57;;;;;;;1.10;0.65;;;20.70;99.90;;;;;;5080907;28;20077;-57
2021/05/10 12:48:24;;;;;;;1.52;0.73;;;20.70;99.90;;;;;;5077867;28;20032;-54
2021/05/10 12:51:05;;;;;;;6.72;1.00;;;20.60;99.90;;;;;;5074698;28;20443;-56
2021/05/10 12:53:36;;;;;;;10.25;1.20;;;20.40;99.90;;;;;;5076944;28;20366;-57
2021/05/10 12:56:02;;;;;;;14.48;1.63;;;20.00;99.90;;;;;;5080839;28;20039;-55
2021/05/10 12:58:27;;;;;;;12.02;1.10;;;19.90;99.90;;;;;;5076185;28;20044;-58
2021/05/10 13:00:54;;;;;;;9.77;1.25;;;19.60;99.90;;;;;;5078124;28;20035;-56
2021/05/10 13:03:28;;;;;;;8.60;1.20;;;19.30;99.90;;;;;;5079047;28;20021;-56
2021/05/10 13:05:54;;;;;;;18.58;1.58;;;19.10;99.90;;;;;;5078447;28;20444;-57